createdAt,value
2023-07-16T00:00:03.099Z,88.64
2023-07-16T00:01:03.067Z,88.54
2023-07-16T00:02:03.098Z,88.64
2023-07-16T00:03:03.050Z,88.73
2023-07-16T00:04:02.959Z,89.12
2023-07-16T00:05:02.871Z,88.54
2023-07-16T00:06:02.831Z,88.54
2023-07-16T00:07:02.797Z,88.83
2023-07-16T00:08:02.737Z,88.73
2023-07-16T00:09:02.690Z,88.54
2023-07-16T00:10:02.641Z,88.64
2023-07-16T00:11:02.595Z,89.03
2023-07-16T00:12:02.559Z,89.12
2023-07-16T00:13:02.506Z,89.12
2023-07-16T00:14:02.477Z,88.64
2023-07-16T00:15:02.556Z,89.03
2023-07-16T00:16:02.403Z,88.64
2023-07-16T00:17:02.372Z,89.03
2023-07-16T00:18:02.364Z,88.83
2023-07-16T00:19:02.241Z,89.12
2023-07-16T00:20:02.187Z,88.83
2023-07-16T00:21:03.083Z,88.73
2023-07-16T00:22:02.097Z,88.93
2023-07-16T00:23:02.112Z,89.31
2023-07-16T00:24:02.003Z,88.54
2023-07-16T00:25:01.985Z,88.34
2023-07-16T00:26:01.911Z,88.34
2023-07-16T00:27:01.867Z,89.03
2023-07-16T00:28:01.855Z,88.79
2023-07-16T00:29:01.778Z,88.64
2023-07-16T00:30:01.753Z,88.93
2023-07-16T00:31:01.719Z,89.31
2023-07-16T00:32:01.636Z,88.93
2023-07-16T00:33:01.692Z,88.93
2023-07-16T00:34:01.594Z,88.93
2023-07-16T00:35:01.503Z,88.73
2023-07-16T00:36:01.485Z,89.03
2023-07-16T00:37:01.410Z,88.88
2023-07-16T00:38:01.362Z,88.79
2023-07-16T00:39:01.327Z,88.79
2023-07-16T00:40:01.266Z,88.69
2023-07-16T00:41:01.228Z,88.64
2023-07-16T00:42:01.178Z,88.59
2023-07-16T00:43:01.140Z,88.69
2023-07-16T00:44:01.093Z,89.12
2023-07-16T00:45:01.045Z,88.88
2023-07-16T00:46:01.041Z,88.69
2023-07-16T00:47:01.000Z,88.49
2023-07-16T00:48:00.935Z,89.07
2023-07-16T00:49:00.861Z,88.59
2023-07-16T00:50:00.810Z,88.98
2023-07-16T00:51:00.772Z,88.49
2023-07-16T00:52:00.724Z,88.88
2023-07-16T00:53:00.676Z,89.37
2023-07-16T00:54:00.653Z,89.85
2023-07-16T00:55:00.582Z,88.98
2023-07-16T00:56:00.546Z,89.56
2023-07-16T00:57:00.496Z,89.56
2023-07-16T00:58:00.446Z,89.56
2023-07-16T00:59:00.403Z,88.98
2023-07-16T01:00:00.364Z,89.37
2023-07-16T01:01:00.318Z,89.37
2023-07-16T01:02:00.373Z,89.47
2023-07-16T01:03:00.262Z,89.56
2023-07-16T01:04:00.177Z,89.76
2023-07-16T01:05:00.312Z,89.66
2023-07-16T01:06:00.084Z,89.47
2023-07-16T01:07:00.067Z,89.47
2023-07-16T01:07:59.993Z,89.56
2023-07-16T01:08:59.943Z,89.27
2023-07-16T01:09:59.901Z,89.95
2023-07-16T01:10:59.852Z,89.56
2023-07-16T01:11:59.805Z,89.66
2023-07-16T01:12:59.757Z,89.85
2023-07-16T01:13:59.712Z,89.47
2023-07-16T01:14:59.674Z,90.05
2023-07-16T01:15:59.666Z,89.47
2023-07-16T01:16:59.660Z,89.47
2023-07-16T01:17:59.562Z,90.05
2023-07-16T01:18:59.488Z,90.34
2023-07-16T01:19:59.432Z,89.85
2023-07-16T01:20:59.393Z,89.85
2023-07-16T01:21:59.341Z,90.34
2023-07-16T01:22:59.358Z,90.53
2023-07-16T01:23:59.257Z,89.76
2023-07-16T01:24:59.207Z,89.95
2023-07-16T01:25:59.155Z,90.34
2023-07-16T01:26:59.121Z,90.39
2023-07-16T01:27:59.061Z,90.24
2023-07-16T01:28:59.024Z,89.85
2023-07-16T01:29:58.975Z,89.81
2023-07-16T01:30:58.938Z,90.34
2023-07-16T01:31:58.967Z,90.05
2023-07-16T01:32:58.888Z,90.63
2023-07-16T01:33:58.844Z,90.58
2023-07-16T01:34:58.752Z,89.90
2023-07-16T01:35:58.712Z,90.24
2023-07-16T01:36:58.656Z,90.20
2023-07-16T01:37:58.604Z,90.20
2023-07-16T01:38:58.568Z,89.90
2023-07-16T01:39:58.520Z,90.39
2023-07-16T01:40:58.469Z,90.30
2023-07-16T01:41:58.422Z,90.30
2023-07-16T01:42:58.372Z,90.10
2023-07-16T01:43:58.330Z,90.48
2023-07-16T01:44:58.280Z,90.20
2023-07-16T01:45:58.283Z,90.10
2023-07-16T01:46:58.190Z,90.00
2023-07-16T01:47:58.202Z,90.88
2023-07-16T01:48:58.102Z,90.78
2023-07-16T01:49:58.071Z,90.58
2023-07-16T01:50:58.007Z,90.78
2023-07-16T01:51:57.963Z,90.78
2023-07-16T01:52:57.920Z,90.97
2023-07-16T01:53:57.869Z,90.10
2023-07-16T01:54:57.819Z,90.68
2023-07-16T01:55:57.782Z,90.78
2023-07-16T01:56:57.740Z,90.78
2023-07-16T01:58:08.745Z,90.58
2023-07-16T01:58:57.643Z,90.78
2023-07-16T01:59:57.597Z,90.88
2023-07-16T02:00:57.572Z,90.58
2023-07-16T02:01:57.497Z,90.48
2023-07-16T02:02:57.557Z,90.78
2023-07-16T02:03:57.402Z,90.58
2023-07-16T02:04:57.378Z,90.68
2023-07-16T02:05:57.348Z,90.78
2023-07-16T02:06:57.276Z,91.55
2023-07-16T02:07:57.221Z,90.58
2023-07-16T02:08:57.182Z,90.58
2023-07-16T02:09:57.137Z,90.88
2023-07-16T02:10:57.097Z,90.78
2023-07-16T02:11:57.038Z,90.78
2023-07-16T02:12:56.996Z,90.58
2023-07-16T02:13:57.013Z,90.78
2023-07-16T02:14:56.907Z,90.88
2023-07-16T02:15:56.938Z,90.97
2023-07-16T02:16:56.816Z,90.97
2023-07-16T02:17:56.805Z,91.27
2023-07-16T02:18:56.725Z,90.48
2023-07-16T02:19:56.674Z,90.88
2023-07-16T02:20:56.626Z,90.48
2023-07-16T02:21:56.586Z,90.88
2023-07-16T02:22:56.591Z,90.58
2023-07-16T02:23:56.496Z,90.68
2023-07-16T02:24:56.437Z,91.17
2023-07-16T02:25:56.397Z,91.02
2023-07-16T02:26:56.356Z,90.10
2023-07-16T02:27:56.308Z,90.06
2023-07-16T02:28:56.255Z,90.00
2023-07-16T02:29:56.204Z,90.83
2023-07-16T02:30:56.183Z,90.78
2023-07-16T02:31:56.115Z,90.54
2023-07-16T02:32:56.080Z,89.96
2023-07-16T02:33:56.023Z,90.25
2023-07-16T02:34:55.982Z,90.16
2023-07-16T02:35:55.926Z,90.06
2023-07-16T02:36:55.889Z,90.44
2023-07-16T02:37:55.843Z,89.96
2023-07-16T02:38:55.792Z,89.37
2023-07-16T02:39:55.745Z,89.18
2023-07-16T02:40:55.702Z,89.37
2023-07-16T02:41:55.743Z,88.70
2023-07-16T02:42:55.610Z,88.79
2023-07-16T02:43:55.573Z,88.51
2023-07-16T02:44:55.516Z,88.60
2023-07-16T02:45:55.468Z,88.79
2023-07-16T02:46:55.459Z,88.12
2023-07-16T02:47:55.422Z,88.31
2023-07-16T02:48:55.336Z,88.02
2023-07-16T02:49:55.290Z,88.02
2023-07-16T02:50:55.235Z,87.54
2023-07-16T02:51:55.193Z,87.92
2023-07-16T02:52:55.143Z,87.44
2023-07-16T02:53:55.118Z,87.82
2023-07-16T02:54:55.060Z,87.24
2023-07-16T02:55:55.001Z,87.34
2023-07-16T02:56:54.964Z,87.24
2023-07-16T02:57:54.904Z,87.54
2023-07-16T02:58:54.866Z,87.54
2023-07-16T02:59:54.817Z,86.57
2023-07-16T03:00:54.797Z,87.05
2023-07-16T03:01:54.777Z,87.05
2023-07-16T03:02:54.879Z,87.05
2023-07-16T03:03:54.631Z,87.15
2023-07-16T03:04:54.598Z,87.15
2023-07-16T03:05:54.538Z,87.24
2023-07-16T03:06:54.493Z,86.95
2023-07-16T03:07:54.448Z,87.15
2023-07-16T03:08:54.405Z,86.95
2023-07-16T03:09:54.372Z,86.86
2023-07-16T03:10:54.308Z,86.66
2023-07-16T03:11:54.284Z,86.91
2023-07-16T03:12:54.210Z,86.82
2023-07-16T03:13:54.163Z,86.62
2023-07-16T03:14:54.117Z,86.91
2023-07-16T03:15:54.078Z,86.13
2023-07-16T03:16:54.073Z,86.62
2023-07-16T03:17:54.063Z,86.62
2023-07-16T03:18:53.934Z,86.82
2023-07-16T03:19:53.883Z,87.01
2023-07-16T03:20:53.837Z,86.91
2023-07-16T03:21:53.796Z,86.43
2023-07-16T03:22:53.796Z,87.10
2023-07-16T03:23:53.696Z,86.62
2023-07-16T03:24:53.653Z,86.72
2023-07-16T03:25:53.616Z,86.52
2023-07-16T03:27:01.159Z,86.62
2023-07-16T03:27:53.522Z,86.23
2023-07-16T03:28:53.489Z,86.04
2023-07-16T03:29:53.425Z,86.23
2023-07-16T03:30:53.459Z,86.13
2023-07-16T03:31:53.326Z,86.43
2023-07-16T03:32:53.858Z,86.43
2023-07-16T03:33:53.243Z,86.52
2023-07-16T03:34:53.194Z,86.23
2023-07-16T03:35:53.138Z,86.43
2023-07-16T03:36:53.094Z,86.52
2023-07-16T03:37:53.042Z,85.85
2023-07-16T03:38:53.004Z,85.94
2023-07-16T03:39:52.970Z,86.72
2023-07-16T03:40:52.906Z,85.75
2023-07-16T03:41:52.870Z,86.62
2023-07-16T03:42:52.816Z,85.85
2023-07-16T03:43:52.769Z,86.13
2023-07-16T03:44:52.722Z,86.13
2023-07-16T03:45:52.677Z,86.23
2023-07-16T03:46:52.633Z,86.23
2023-07-16T03:47:52.619Z,86.33
2023-07-16T03:48:52.539Z,86.04
2023-07-16T03:49:52.487Z,86.23
2023-07-16T03:50:52.456Z,86.04
2023-07-16T03:51:52.408Z,85.75
2023-07-16T03:52:52.345Z,85.75
2023-07-16T03:53:52.306Z,86.13
2023-07-16T03:54:52.257Z,86.33
2023-07-16T03:55:52.208Z,85.80
2023-07-16T03:56:52.164Z,85.85
2023-07-16T03:57:52.127Z,86.00
2023-07-16T03:58:52.067Z,86.00
2023-07-16T03:59:52.021Z,85.90
2023-07-16T04:00:51.974Z,85.71
2023-07-16T04:01:51.954Z,85.90
2023-07-16T04:02:51.992Z,85.71
2023-07-16T04:03:51.852Z,86.58
2023-07-16T04:04:51.802Z,86.48
2023-07-16T04:05:51.738Z,86.29
2023-07-16T04:06:51.703Z,86.38
2023-07-16T04:07:51.645Z,86.09
2023-07-16T04:08:51.604Z,86.09
2023-07-16T04:09:51.560Z,86.48
2023-07-16T04:10:51.580Z,86.09
2023-07-16T04:11:51.471Z,86.19
2023-07-16T04:12:51.409Z,86.96
2023-07-16T04:13:51.388Z,86.19
2023-07-16T04:14:51.328Z,86.58
2023-07-16T04:15:51.269Z,86.68
2023-07-16T04:16:51.263Z,86.77
2023-07-16T04:17:51.369Z,86.77
2023-07-16T04:18:51.130Z,86.77
2023-07-16T04:19:51.087Z,86.38
2023-07-16T04:20:51.040Z,86.87
2023-07-16T04:22:05.652Z,86.87
2023-07-16T04:22:50.985Z,86.29
2023-07-16T04:23:50.893Z,86.09
2023-07-16T04:24:50.857Z,86.19
2023-07-16T04:25:50.808Z,86.19
2023-07-16T04:26:50.753Z,86.29
2023-07-16T04:27:50.706Z,86.38
2023-07-16T04:28:50.664Z,86.48
2023-07-16T04:29:50.624Z,86.58
2023-07-16T04:30:50.645Z,85.80
2023-07-16T04:31:50.528Z,85.80
2023-07-16T04:32:50.520Z,85.80
2023-07-16T04:33:50.426Z,85.80
2023-07-16T04:34:50.385Z,85.71
2023-07-16T04:35:50.332Z,86.68
2023-07-16T04:36:50.287Z,85.80
2023-07-16T04:37:50.242Z,85.90
2023-07-16T04:38:52.135Z,85.71
2023-07-16T04:39:50.145Z,85.51
2023-07-16T04:40:50.097Z,86.09
2023-07-16T04:41:50.054Z,85.80
2023-07-16T04:42:50.001Z,85.90
2023-07-16T04:43:49.961Z,86.29
2023-07-16T04:44:49.909Z,86.29
2023-07-16T04:45:49.899Z,85.61
2023-07-16T04:46:49.873Z,85.80
2023-07-16T04:47:49.828Z,85.61
2023-07-16T04:48:49.796Z,85.31
2023-07-16T04:49:49.678Z,85.66
2023-07-16T04:50:49.629Z,85.31
2023-07-16T04:51:49.585Z,85.18
2023-07-16T04:52:49.532Z,85.28
2023-07-16T04:53:49.485Z,85.51
2023-07-16T04:54:49.442Z,85.47
2023-07-16T04:55:49.394Z,85.22
2023-07-16T04:56:49.349Z,85.18
2023-07-16T04:57:49.300Z,85.18
2023-07-16T04:58:49.254Z,85.37
2023-07-16T04:59:49.237Z,85.41
2023-07-16T05:00:49.159Z,85.18
2023-07-16T05:01:49.160Z,85.47
2023-07-16T05:02:49.091Z,85.47
2023-07-16T05:03:49.157Z,85.66
2023-07-16T05:04:48.963Z,85.76
2023-07-16T05:05:48.925Z,85.47
2023-07-16T05:06:48.874Z,85.86
2023-07-16T05:07:48.820Z,85.76
2023-07-16T05:08:48.861Z,85.76
2023-07-16T05:09:48.732Z,85.47
2023-07-16T05:10:48.679Z,86.24
2023-07-16T05:11:48.641Z,85.96
2023-07-16T05:12:48.588Z,86.15
2023-07-16T05:13:48.548Z,85.86
2023-07-16T05:14:48.515Z,85.96
2023-07-16T05:15:48.504Z,86.05
2023-07-16T05:16:48.480Z,85.86
2023-07-16T05:17:48.494Z,85.57
2023-07-16T05:18:48.309Z,86.24
2023-07-16T05:19:48.261Z,85.86
2023-07-16T05:20:48.218Z,85.96
2023-07-16T05:21:48.285Z,86.24
2023-07-16T05:22:48.121Z,86.15
2023-07-16T05:23:48.081Z,85.57
2023-07-16T05:24:48.037Z,85.76
2023-07-16T05:25:47.977Z,86.05
2023-07-16T05:26:47.935Z,86.05
2023-07-16T05:27:47.887Z,86.05
2023-07-16T05:28:47.833Z,85.96
2023-07-16T05:29:47.791Z,86.15
2023-07-16T05:30:47.739Z,86.24
2023-07-16T05:31:47.808Z,86.15
2023-07-16T05:32:47.659Z,85.96
2023-07-16T05:33:47.609Z,85.96
2023-07-16T05:34:47.559Z,85.76
2023-07-16T05:35:47.513Z,86.05
2023-07-16T05:36:47.459Z,86.05
2023-07-16T05:37:47.409Z,86.63
2023-07-16T05:38:47.364Z,85.57
2023-07-16T05:39:47.321Z,86.24
2023-07-16T05:40:47.307Z,85.76
2023-07-16T05:41:47.223Z,86.24
2023-07-16T05:42:47.173Z,86.05
2023-07-16T05:43:47.122Z,85.96
2023-07-16T05:44:47.080Z,86.15
2023-07-16T05:45:47.066Z,86.15
2023-07-16T05:46:47.029Z,85.96
2023-07-16T05:47:47.016Z,86.05
2023-07-16T05:48:46.918Z,85.96
2023-07-16T05:49:46.850Z,86.20
2023-07-16T05:50:46.801Z,86.15
2023-07-16T05:51:46.761Z,86.05
2023-07-16T05:52:46.699Z,86.01
2023-07-16T05:53:46.765Z,86.82
2023-07-16T05:54:46.620Z,86.82
2023-07-16T05:55:46.566Z,86.92
2023-07-16T05:56:46.512Z,86.63
2023-07-16T05:57:46.469Z,86.63
2023-07-16T05:58:46.431Z,86.34
2023-07-16T05:59:46.400Z,86.63
2023-07-16T06:00:46.326Z,86.34
2023-07-16T06:01:46.356Z,86.40
2023-07-16T06:02:46.254Z,86.92
2023-07-16T06:03:46.280Z,87.02
2023-07-16T06:04:46.135Z,86.63
2023-07-16T06:05:46.094Z,86.63
2023-07-16T06:06:46.042Z,86.40
2023-07-16T06:07:45.998Z,86.54
2023-07-16T06:08:45.940Z,86.54
2023-07-16T06:09:45.895Z,86.73
2023-07-16T06:10:45.851Z,86.63
2023-07-16T06:11:45.806Z,86.15
2023-07-16T06:12:45.756Z,86.15
2023-07-16T06:13:45.710Z,86.44
2023-07-16T06:14:45.658Z,86.82
2023-07-16T06:15:45.615Z,86.92
2023-07-16T06:16:45.618Z,86.54
2023-07-16T06:17:45.557Z,86.63
2023-07-16T06:18:45.481Z,86.44
2023-07-16T06:19:45.424Z,86.54
2023-07-16T06:20:45.381Z,86.63
2023-07-16T06:21:45.344Z,86.63
2023-07-16T06:22:45.335Z,86.34
2023-07-16T06:23:45.235Z,86.54
2023-07-16T06:24:45.199Z,86.73
2023-07-16T06:25:45.137Z,86.40
2023-07-16T06:26:45.092Z,86.05
2023-07-16T06:27:45.048Z,86.15
2023-07-16T06:28:44.999Z,86.10
2023-07-16T06:29:44.965Z,86.49
2023-07-16T06:30:44.907Z,86.30
2023-07-16T06:31:44.905Z,85.72
2023-07-16T06:32:44.820Z,86.49
2023-07-16T06:33:44.756Z,86.30
2023-07-16T06:34:44.711Z,86.30
2023-07-16T06:35:44.670Z,86.10
2023-07-16T06:36:44.619Z,86.20
2023-07-16T06:37:44.571Z,86.30
2023-07-16T06:38:44.529Z,86.54
2023-07-16T06:39:44.475Z,85.82
2023-07-16T06:40:44.433Z,86.05
2023-07-16T06:41:44.384Z,85.91
2023-07-16T06:42:44.336Z,85.96
2023-07-16T06:43:44.285Z,86.10
2023-07-16T06:44:44.243Z,86.10
2023-07-16T06:45:44.225Z,86.01
2023-07-16T06:46:44.182Z,86.01
2023-07-16T06:47:44.125Z,85.91
2023-07-16T06:48:44.046Z,85.91
2023-07-16T06:49:44.001Z,86.01
2023-07-16T06:50:43.969Z,86.30
2023-07-16T06:51:43.916Z,86.01
2023-07-16T06:52:43.855Z,86.15
2023-07-16T06:53:43.820Z,86.49
2023-07-16T06:54:43.760Z,86.15
2023-07-16T06:55:43.722Z,86.59
2023-07-16T06:56:44.201Z,86.40
2023-07-16T06:57:43.627Z,86.30
2023-07-16T06:58:43.578Z,86.59
2023-07-16T06:59:43.532Z,86.78
2023-07-16T07:00:43.485Z,86.49
2023-07-16T07:01:43.460Z,86.49
2023-07-16T07:02:43.416Z,86.49
2023-07-16T07:03:43.395Z,86.88
2023-07-16T07:04:43.290Z,86.59
2023-07-16T07:05:43.267Z,86.49
2023-07-16T07:06:43.192Z,86.30
2023-07-16T07:07:43.148Z,86.78
2023-07-16T07:08:43.103Z,86.63
2023-07-16T07:09:43.065Z,86.82
2023-07-16T07:10:43.003Z,86.59
2023-07-16T07:11:42.976Z,86.98
2023-07-16T07:12:42.916Z,86.98
2023-07-16T07:13:42.871Z,86.59
2023-07-16T07:14:42.814Z,86.40
2023-07-16T07:15:42.798Z,86.98
2023-07-16T07:16:42.729Z,86.20
2023-07-16T07:17:42.717Z,86.78
2023-07-16T07:18:42.626Z,85.82
2023-07-16T07:19:42.589Z,86.98
2023-07-16T07:20:42.527Z,86.59
2023-07-16T07:21:42.510Z,86.78
2023-07-16T07:22:42.511Z,86.59
2023-07-16T07:23:42.408Z,86.40
2023-07-16T07:24:42.340Z,86.49
2023-07-16T07:25:42.310Z,86.78
2023-07-16T07:26:47.212Z,86.10
2023-07-16T07:27:42.228Z,86.59
2023-07-16T07:28:42.155Z,86.20
2023-07-16T07:29:42.110Z,86.01
2023-07-16T07:30:42.062Z,85.82
2023-07-16T07:31:42.059Z,86.01
2023-07-16T07:32:41.981Z,85.82
2023-07-16T07:33:41.918Z,86.20
2023-07-16T07:34:41.883Z,86.10
2023-07-16T07:35:41.824Z,86.20
2023-07-16T07:36:41.788Z,86.01
2023-07-16T07:37:41.727Z,85.91
2023-07-16T07:38:41.672Z,86.20
2023-07-16T07:39:41.670Z,85.91
2023-07-16T07:40:41.584Z,86.20
2023-07-16T07:41:41.549Z,85.91
2023-07-16T07:42:41.486Z,86.10
2023-07-16T07:43:41.442Z,85.82
2023-07-16T07:44:41.428Z,85.52
2023-07-16T07:45:41.347Z,85.33
2023-07-16T07:46:41.317Z,85.24
2023-07-16T07:47:41.314Z,85.24
2023-07-16T07:48:41.204Z,85.24
2023-07-16T07:49:41.158Z,84.94
2023-07-16T07:50:41.107Z,84.94
2023-07-16T07:51:41.059Z,85.14
2023-07-16T07:52:41.024Z,85.24
2023-07-16T07:53:40.965Z,84.84
2023-07-16T07:54:40.917Z,85.04
2023-07-16T07:55:40.886Z,85.14
2023-07-16T07:56:40.837Z,85.04
2023-07-16T07:57:40.801Z,85.04
2023-07-16T07:58:40.747Z,84.94
2023-07-16T07:59:40.676Z,84.60
2023-07-16T08:00:40.630Z,84.79
2023-07-16T08:01:40.586Z,84.84
2023-07-16T08:02:40.852Z,84.46
2023-07-16T08:03:40.585Z,84.60
2023-07-16T08:04:40.709Z,84.84
2023-07-16T08:05:40.413Z,84.75
2023-07-16T08:06:40.347Z,84.21
2023-07-16T08:07:40.300Z,84.60
2023-07-16T08:08:40.260Z,84.21
2023-07-16T08:09:40.210Z,84.31
2023-07-16T08:10:40.165Z,84.50
2023-07-16T08:11:40.106Z,84.60
2023-07-16T08:12:40.071Z,84.21
2023-07-16T08:13:40.037Z,84.11
2023-07-16T08:14:39.968Z,83.92
2023-07-16T08:15:39.923Z,83.73
2023-07-16T08:16:39.888Z,83.92
2023-07-16T08:17:39.940Z,83.83
2023-07-16T08:18:39.805Z,83.73
2023-07-16T08:19:39.739Z,83.83
2023-07-16T08:20:39.686Z,84.01
2023-07-16T08:21:39.640Z,84.36
2023-07-16T08:22:39.646Z,84.21
2023-07-16T08:23:39.537Z,84.31
2023-07-16T08:24:39.491Z,84.11
2023-07-16T08:25:39.449Z,84.11
2023-07-16T08:26:39.415Z,83.98
2023-07-16T08:27:39.357Z,84.11
2023-07-16T08:28:40.362Z,84.11
2023-07-16T08:29:39.274Z,83.92
2023-07-16T08:30:39.242Z,84.21
2023-07-16T08:31:39.157Z,84.11
2023-07-16T08:32:39.183Z,83.92
2023-07-16T08:33:39.080Z,83.92
2023-07-16T08:34:39.025Z,83.73
2023-07-16T08:35:38.974Z,83.73
2023-07-16T08:36:38.940Z,83.53
2023-07-16T08:37:38.878Z,83.73
2023-07-16T08:38:38.830Z,84.01
2023-07-16T08:39:38.791Z,83.25
2023-07-16T08:40:38.734Z,83.25
2023-07-16T08:41:38.685Z,83.15
2023-07-16T08:42:38.636Z,83.44
2023-07-16T08:43:38.597Z,83.34
2023-07-16T08:44:38.546Z,83.53
2023-07-16T08:45:38.511Z,83.44
2023-07-16T08:46:38.492Z,82.86
2023-07-16T08:47:38.432Z,83.25
2023-07-16T08:48:38.357Z,83.25
2023-07-16T08:49:38.310Z,83.25
2023-07-16T08:50:38.261Z,83.15
2023-07-16T08:51:38.221Z,83.44
2023-07-16T08:52:38.164Z,82.95
2023-07-16T08:53:38.118Z,82.66
2023-07-16T08:54:38.067Z,82.76
2023-07-16T08:55:38.108Z,83.25
2023-07-16T08:56:37.980Z,82.66
2023-07-16T08:57:39.759Z,83.05
2023-07-16T08:58:37.882Z,83.05
2023-07-16T08:59:37.844Z,82.95
2023-07-16T09:00:37.787Z,82.66
2023-07-16T09:01:37.906Z,83.05
2023-07-16T09:02:37.710Z,82.86
2023-07-16T09:03:37.645Z,82.28
2023-07-16T09:04:37.602Z,82.76
2023-07-16T09:05:40.314Z,82.86
2023-07-16T09:06:37.495Z,83.05
2023-07-16T09:07:37.466Z,82.28
2023-07-16T09:08:37.410Z,82.18
2023-07-16T09:09:37.365Z,82.18
2023-07-16T09:10:37.308Z,81.98
2023-07-16T09:11:37.261Z,81.98
2023-07-16T09:12:37.225Z,82.08
2023-07-16T09:13:37.172Z,81.98
2023-07-16T09:14:37.125Z,81.79
2023-07-16T09:15:37.081Z,81.89
2023-07-16T09:16:37.044Z,82.08
2023-07-16T09:17:37.087Z,81.89
2023-07-16T09:18:36.994Z,82.08
2023-07-16T09:19:36.888Z,81.79
2023-07-16T09:20:36.843Z,81.89
2023-07-16T09:21:36.794Z,81.98
2023-07-16T09:22:36.766Z,81.60
2023-07-16T09:23:36.702Z,81.79
2023-07-16T09:24:51.242Z,81.89
2023-07-16T09:25:36.618Z,81.70
2023-07-16T09:26:36.610Z,81.30
2023-07-16T09:27:36.503Z,81.40
2023-07-16T09:28:36.464Z,81.50
2023-07-16T09:29:36.416Z,81.50
2023-07-16T09:30:36.380Z,80.82
2023-07-16T09:31:36.357Z,80.63
2023-07-16T09:32:36.342Z,81.60
2023-07-16T09:33:36.275Z,80.63
2023-07-16T09:34:36.188Z,81.02
2023-07-16T09:35:36.131Z,80.92
2023-07-16T09:36:36.084Z,80.82
2023-07-16T09:37:36.035Z,81.02
2023-07-16T09:38:35.998Z,81.21
2023-07-16T09:39:35.936Z,80.54
2023-07-16T09:40:35.893Z,80.82
2023-07-16T09:41:35.850Z,80.24
2023-07-16T09:42:35.820Z,80.34
2023-07-16T09:43:36.746Z,80.15
2023-07-16T09:44:36.277Z,80.34
2023-07-16T09:45:35.657Z,80.24
2023-07-16T09:46:35.680Z,80.44
2023-07-16T09:47:35.565Z,80.44
2023-07-16T09:48:35.517Z,80.47
2023-07-16T09:49:35.490Z,79.95
2023-07-16T09:50:35.424Z,80.19
2023-07-16T09:51:35.376Z,80.05
2023-07-16T09:52:35.336Z,80.24
2023-07-16T09:53:35.276Z,80.28
2023-07-16T09:54:35.231Z,80.24
2023-07-16T09:55:35.180Z,80.44
2023-07-16T09:56:35.142Z,80.15
2023-07-16T09:57:35.084Z,80.38
2023-07-16T09:58:35.049Z,80.09
2023-07-16T09:59:35.001Z,79.85
2023-07-16T10:00:34.951Z,79.90
2023-07-16T10:01:34.990Z,80.05
2023-07-16T10:02:34.973Z,79.85
2023-07-16T10:03:34.809Z,80.15
2023-07-16T10:04:34.789Z,80.15
2023-07-16T10:05:34.716Z,79.76
2023-07-16T10:06:34.665Z,79.76
2023-07-16T10:07:34.615Z,79.76
2023-07-16T10:08:34.566Z,80.15
2023-07-16T10:09:34.549Z,79.80
2023-07-16T10:10:34.471Z,80.05
2023-07-16T10:11:34.426Z,79.70
2023-07-16T10:12:34.390Z,80.19
2023-07-16T10:13:34.331Z,80.19
2023-07-16T10:14:34.281Z,79.76
2023-07-16T10:15:34.357Z,79.80
2023-07-16T10:16:34.249Z,79.80
2023-07-16T10:17:34.243Z,79.95
2023-07-16T10:18:34.094Z,79.76
2023-07-16T10:19:34.047Z,79.80
2023-07-16T10:20:33.997Z,79.60
2023-07-16T10:21:33.964Z,79.90
2023-07-16T10:22:33.994Z,79.50
2023-07-16T10:23:33.869Z,79.76
2023-07-16T10:24:33.817Z,79.41
2023-07-16T10:25:33.767Z,79.85
2023-07-16T10:26:33.822Z,79.80
2023-07-16T10:27:33.674Z,79.60
2023-07-16T10:28:33.627Z,79.60
2023-07-16T10:29:33.586Z,79.50
2023-07-16T10:30:33.531Z,79.80
2023-07-16T10:31:33.525Z,79.90
2023-07-16T10:32:33.577Z,79.85
2023-07-16T10:33:33.382Z,79.70
2023-07-16T10:34:33.339Z,79.80
2023-07-16T10:35:33.371Z,79.80
2023-07-16T10:36:33.246Z,79.47
2023-07-16T10:37:33.204Z,79.50
2023-07-16T10:38:33.155Z,79.80
2023-07-16T10:39:33.107Z,79.80
2023-07-16T10:40:33.108Z,79.50
2023-07-16T10:41:33.005Z,79.50
2023-07-16T10:42:32.966Z,79.50
2023-07-16T10:43:32.920Z,79.60
2023-07-16T10:44:32.864Z,79.60
2023-07-16T10:45:32.824Z,79.50
2023-07-16T10:46:32.823Z,79.60
2023-07-16T10:47:32.757Z,79.50
2023-07-16T10:48:32.678Z,79.80
2023-07-16T10:49:32.646Z,80.19
2023-07-16T10:50:32.584Z,80.19
2023-07-16T10:51:32.539Z,80.19
2023-07-16T10:52:32.497Z,79.60
2023-07-16T10:53:32.449Z,79.12
2023-07-16T10:54:32.394Z,79.32
2023-07-16T10:55:33.218Z,79.02
2023-07-16T10:56:32.301Z,79.02
2023-07-16T10:57:32.247Z,79.41
2023-07-16T10:58:32.209Z,79.02
2023-07-16T10:59:32.166Z,79.02
2023-07-16T11:00:32.110Z,79.12
2023-07-16T11:01:32.103Z,78.74
2023-07-16T11:02:32.060Z,78.74
2023-07-16T11:03:32.033Z,78.92
2023-07-16T11:04:31.929Z,79.12
2023-07-16T11:05:31.874Z,78.83
2023-07-16T11:06:31.829Z,78.83
2023-07-16T11:07:31.784Z,78.44
2023-07-16T11:08:31.738Z,78.83
2023-07-16T11:09:31.704Z,78.64
2023-07-16T11:10:31.656Z,78.64
2023-07-16T11:11:31.597Z,78.83
2023-07-16T11:12:31.550Z,78.54
2023-07-16T11:13:31.492Z,78.44
2023-07-16T11:14:31.454Z,78.34
2023-07-16T11:15:31.400Z,78.92
2023-07-16T11:16:31.474Z,78.92
2023-07-16T11:17:31.330Z,78.64
2023-07-16T11:18:31.267Z,78.83
2023-07-16T11:19:31.233Z,78.92
2023-07-16T11:20:31.183Z,78.92
2023-07-16T11:21:31.122Z,78.92
2023-07-16T11:22:31.105Z,78.64
2023-07-16T11:23:31.033Z,79.12
2023-07-16T11:24:30.980Z,78.64
2023-07-16T11:25:30.952Z,78.92
2023-07-16T11:26:30.886Z,78.92
2023-07-16T11:27:30.834Z,78.64
2023-07-16T11:28:30.790Z,78.92
2023-07-16T11:29:30.735Z,78.92
2023-07-16T11:30:30.693Z,78.92
2023-07-16T11:31:30.719Z,78.64
2023-07-16T11:32:30.715Z,78.64
2023-07-16T11:33:30.636Z,78.92
2023-07-16T11:34:30.509Z,78.92
2023-07-16T11:35:30.466Z,78.83
2023-07-16T11:36:30.416Z,78.83
2023-07-16T11:37:30.367Z,78.92
2023-07-16T11:38:30.377Z,78.83
2023-07-16T11:39:30.270Z,78.83
2023-07-16T11:40:30.220Z,78.83
2023-07-16T11:41:30.197Z,78.83
2023-07-16T11:42:30.143Z,78.64
2023-07-16T11:43:30.081Z,78.34
2023-07-16T11:44:30.032Z,78.44
2023-07-16T11:45:29.989Z,78.44
2023-07-16T11:46:29.971Z,78.64
2023-07-16T11:47:29.967Z,78.64
2023-07-16T11:48:29.851Z,78.54
2023-07-16T11:49:29.808Z,78.25
2023-07-16T11:50:29.795Z,78.64
2023-07-16T11:51:29.709Z,78.54
2023-07-16T11:52:29.668Z,77.96
2023-07-16T11:53:29.612Z,78.64
2023-07-16T11:54:29.602Z,78.05
2023-07-16T11:55:29.521Z,78.54
2023-07-16T11:56:29.474Z,78.83
2023-07-16T11:57:29.426Z,78.44
2023-07-16T11:58:29.378Z,78.54
2023-07-16T11:59:29.328Z,78.44
2023-07-16T12:00:29.302Z,78.34
2023-07-16T12:01:29.332Z,78.44
2023-07-16T12:02:29.238Z,78.64
2023-07-16T12:03:29.301Z,78.44
2023-07-16T12:04:29.095Z,79.12
2023-07-16T12:05:46.226Z,78.44
2023-07-16T12:06:28.998Z,78.44
2023-07-16T12:07:28.956Z,78.34
2023-07-16T12:08:28.901Z,78.44
2023-07-16T12:09:28.849Z,78.34
2023-07-16T12:10:28.829Z,78.44
2023-07-16T12:11:28.762Z,78.44
2023-07-16T12:12:28.721Z,78.83
2023-07-16T12:13:28.679Z,78.05
2023-07-16T12:14:28.625Z,78.67
2023-07-16T12:15:28.571Z,78.58
2023-07-16T12:16:28.589Z,78.25
2023-07-16T12:17:28.668Z,78.44
2023-07-16T12:18:28.433Z,78.54
2023-07-16T12:19:28.389Z,78.67
2023-07-16T12:20:28.343Z,77.90
2023-07-16T12:21:28.290Z,78.48
2023-07-16T12:22:28.272Z,78.48
2023-07-16T12:23:28.196Z,78.48
2023-07-16T12:24:28.153Z,78.67
2023-07-16T12:25:28.105Z,78.67
2023-07-16T12:26:28.056Z,78.67
2023-07-16T12:27:28.059Z,78.38
2023-07-16T12:28:27.990Z,78.67
2023-07-16T12:29:28.030Z,78.48
2023-07-16T12:30:27.871Z,78.38
2023-07-16T12:31:27.856Z,78.48
2023-07-16T12:32:27.914Z,78.38
2023-07-16T12:33:27.752Z,78.48
2023-07-16T12:34:27.742Z,78.67
2023-07-16T12:35:27.646Z,78.48
2023-07-16T12:36:27.665Z,78.77
2023-07-16T12:37:27.537Z,78.77
2023-07-16T12:38:27.495Z,78.48
2023-07-16T12:39:27.450Z,78.09
2023-07-16T12:40:27.398Z,77.51
2023-07-16T12:41:27.348Z,77.90
2023-07-16T12:42:27.305Z,77.70
2023-07-16T12:43:27.262Z,77.70
2023-07-16T12:44:27.208Z,78.09
2023-07-16T12:45:27.179Z,78.00
2023-07-16T12:46:27.137Z,78.00
2023-07-16T12:47:27.092Z,78.00
2023-07-16T12:48:27.020Z,78.09
2023-07-16T12:49:26.969Z,78.09
2023-07-16T12:50:26.926Z,78.00
2023-07-16T12:51:26.883Z,78.09